sensor_id;sensor_type;location;lat;lon;timestamp;P1;durP1;ratioP1;P2;durP2;ratioP2
30080;SDS011;16902;50.816;12.828;2022-12-07T00:01:45;25.95;;;15.43;;
30080;SDS011;16902;50.816;12.828;2022-12-07T00:06:50;27.17;;;16.05;;
30080;SDS011;16902;50.816;12.828;2022-12-07T00:11:53;26.97;;;16.13;;
30080;SDS011;16902;50.816;12.828;2022-12-07T00:16:55;27.27;;;15.25;;
30080;SDS011;16902;50.816;12.828;2022-12-07T00:21:57;24.80;;;15.80;;
30080;SDS011;16902;50.816;12.828;2022-12-07T00:26:58;23.13;;;14.48;;
30080;SDS011;16902;50.816;12.828;2022-12-07T00:32:00;25.25;;;15.40;;
30080;SDS011;16902;50.816;12.828;2022-12-07T00:37:02;22.95;;;14.68;;
30080;SDS011;16902;50.816;12.828;2022-12-07T00:42:04;27.10;;;16.67;;
30080;SDS011;16902;50.816;12.828;2022-12-07T00:47:05;25.47;;;15.87;;
30080;SDS011;16902;50.816;12.828;2022-12-07T00:52:07;27.07;;;15.63;;
30080;SDS011;16902;50.816;12.828;2022-12-07T00:57:08;27.87;;;15.07;;
30080;SDS011;16902;50.816;12.828;2022-12-07T01:02:10;23.60;;;15.18;;
30080;SDS011;16902;50.816;12.828;2022-12-07T01:07:12;27.20;;;15.50;;
30080;SDS011;16902;50.816;12.828;2022-12-07T01:12:13;27.85;;;16.58;;
30080;SDS011;16902;50.816;12.828;2022-12-07T01:17:15;30.10;;;16.07;;
30080;SDS011;16902;50.816;12.828;2022-12-07T01:22:16;29.07;;;16.73;;
30080;SDS011;16902;50.816;12.828;2022-12-07T01:27:18;32.77;;;18.20;;
30080;SDS011;16902;50.816;12.828;2022-12-07T01:32:20;29.17;;;16.90;;
30080;SDS011;16902;50.816;12.828;2022-12-07T01:37:21;29.50;;;16.23;;
30080;SDS011;16902;50.816;12.828;2022-12-07T01:42:23;30.27;;;16.42;;
30080;SDS011;16902;50.816;12.828;2022-12-07T01:47:25;34.40;;;18.67;;
30080;SDS011;16902;50.816;12.828;2022-12-07T01:52:28;32.23;;;16.63;;
30080;SDS011;16902;50.816;12.828;2022-12-07T01:57:33;26.98;;;15.93;;
30080;SDS011;16902;50.816;12.828;2022-12-07T02:02:41;28.20;;;14.17;;
30080;SDS011;16902;50.816;12.828;2022-12-07T02:07:47;32.75;;;18.00;;
30080;SDS011;16902;50.816;12.828;2022-12-07T02:13:25;29.70;;;16.47;;
30080;SDS011;16902;50.816;12.828;2022-12-07T02:18:31;26.43;;;15.97;;
30080;SDS011;16902;50.816;12.828;2022-12-07T02:34:46;28.07;;;14.87;;
30080;SDS011;16902;50.816;12.828;2022-12-07T02:39:51;25.27;;;15.17;;
30080;SDS011;16902;50.816;12.828;2022-12-07T02:44:59;28.40;;;14.50;;
30080;SDS011;16902;50.816;12.828;2022-12-07T02:50:03;23.17;;;12.90;;
30080;SDS011;16902;50.816;12.828;2022-12-07T02:55:06;26.90;;;14.70;;
30080;SDS011;16902;50.816;12.828;2022-12-07T03:00:11;24.80;;;13.43;;
30080;SDS011;16902;50.816;12.828;2022-12-07T03:21:31;25.23;;;14.07;;
30080;SDS011;16902;50.816;12.828;2022-12-07T03:26:41;23.57;;;12.80;;
30080;SDS011;16902;50.816;12.828;2022-12-07T03:31:51;23.37;;;13.07;;
30080;SDS011;16902;50.816;12.828;2022-12-07T03:37:08;17.90;;;11.83;;
30080;SDS011;16902;50.816;12.828;2022-12-07T03:42:38;18.83;;;11.27;;
30080;SDS011;16902;50.816;12.828;2022-12-07T03:58:20;18.37;;;11.17;;
30080;SDS011;16902;50.816;12.828;2022-12-07T04:03:23;17.50;;;10.43;;
30080;SDS011;16902;50.816;12.828;2022-12-07T04:08:25;18.93;;;12.10;;
30080;SDS011;16902;50.816;12.828;2022-12-07T04:13:27;16.27;;;10.70;;
30080;SDS011;16902;50.816;12.828;2022-12-07T04:18:29;16.30;;;10.43;;
30080;SDS011;16902;50.816;12.828;2022-12-07T04:23:31;17.67;;;9.63;;
30080;SDS011;16902;50.816;12.828;2022-12-07T04:28:33;14.77;;;9.27;;
30080;SDS011;16902;50.816;12.828;2022-12-07T04:33:35;15.43;;;9.67;;
30080;SDS011;16902;50.816;12.828;2022-12-07T04:38:37;15.57;;;10.10;;
30080;SDS011;16902;50.816;12.828;2022-12-07T04:43:39;16.43;;;10.73;;
30080;SDS011;16902;50.816;12.828;2022-12-07T04:48:41;12.30;;;9.17;;
30080;SDS011;16902;50.816;12.828;2022-12-07T04:53:43;11.67;;;8.80;;
30080;SDS011;16902;50.816;12.828;2022-12-07T04:58:45;14.03;;;7.93;;
30080;SDS011;16902;50.816;12.828;2022-12-07T05:03:48;10.70;;;8.17;;
30080;SDS011;16902;50.816;12.828;2022-12-07T05:08:50;9.87;;;6.93;;
30080;SDS011;16902;50.816;12.828;2022-12-07T05:13:52;10.70;;;7.57;;
30080;SDS011;16902;50.816;12.828;2022-12-07T05:18:53;10.90;;;7.53;;
30080;SDS011;16902;50.816;12.828;2022-12-07T05:23:55;10.90;;;7.50;;
30080;SDS011;16902;50.816;12.828;2022-12-07T05:28:57;9.52;;;6.97;;
30080;SDS011;16902;50.816;12.828;2022-12-07T05:33:59;12.70;;;8.67;;
30080;SDS011;16902;50.816;12.828;2022-12-07T05:39:01;11.70;;;7.50;;
30080;SDS011;16902;50.816;12.828;2022-12-07T05:44:04;11.70;;;7.47;;
30080;SDS011;16902;50.816;12.828;2022-12-07T05:49:06;11.83;;;7.87;;
30080;SDS011;16902;50.816;12.828;2022-12-07T05:54:08;13.83;;;8.80;;
30080;SDS011;16902;50.816;12.828;2022-12-07T05:59:10;11.85;;;8.85;;
30080;SDS011;16902;50.816;12.828;2022-12-07T06:04:25;13.50;;;9.30;;
30080;SDS011;16902;50.816;12.828;2022-12-07T06:09:28;17.40;;;10.33;;
30080;SDS011;16902;50.816;12.828;2022-12-07T06:14:31;15.83;;;9.80;;
30080;SDS011;16902;50.816;12.828;2022-12-07T06:19:33;20.80;;;12.07;;
30080;SDS011;16902;50.816;12.828;2022-12-07T06:24:35;21.63;;;12.10;;
30080;SDS011;16902;50.816;12.828;2022-12-07T06:29:37;23.17;;;13.83;;
30080;SDS011;16902;50.816;12.828;2022-12-07T06:34:39;22.97;;;13.20;;
30080;SDS011;16902;50.816;12.828;2022-12-07T06:39:40;22.05;;;13.10;;
30080;SDS011;16902;50.816;12.828;2022-12-07T06:44:42;22.53;;;13.67;;
30080;SDS011;16902;50.816;12.828;2022-12-07T06:49:44;25.67;;;14.17;;
30080;SDS011;16902;50.816;12.828;2022-12-07T06:54:46;23.40;;;13.97;;
30080;SDS011;16902;50.816;12.828;2022-12-07T06:59:48;20.40;;;13.17;;
30080;SDS011;16902;50.816;12.828;2022-12-07T07:04:49;23.27;;;12.30;;
30080;SDS011;16902;50.816;12.828;2022-12-07T07:09:51;22.80;;;14.73;;
30080;SDS011;16902;50.816;12.828;2022-12-07T07:14:53;28.37;;;16.10;;
30080;SDS011;16902;50.816;12.828;2022-12-07T07:19:55;25.20;;;16.10;;
30080;SDS011;16902;50.816;12.828;2022-12-07T07:24:57;24.33;;;14.80;;
30080;SDS011;16902;50.816;12.828;2022-12-07T07:29:58;25.37;;;14.43;;
30080;SDS011;16902;50.816;12.828;2022-12-07T07:35:01;24.13;;;13.70;;
30080;SDS011;16902;50.816;12.828;2022-12-07T07:40:03;23.98;;;14.40;;
30080;SDS011;16902;50.816;12.828;2022-12-07T07:45:06;26.27;;;14.10;;
30080;SDS011;16902;50.816;12.828;2022-12-07T07:50:08;26.67;;;16.05;;
30080;SDS011;16902;50.816;12.828;2022-12-07T07:55:10;27.13;;;15.20;;
30080;SDS011;16902;50.816;12.828;2022-12-07T08:00:13;23.97;;;13.97;;
30080;SDS011;16902;50.816;12.828;2022-12-07T08:05:16;21.07;;;12.30;;
30080;SDS011;16902;50.816;12.828;2022-12-07T08:10:18;23.50;;;12.67;;
30080;SDS011;16902;50.816;12.828;2022-12-07T08:15:20;20.63;;;12.98;;
30080;SDS011;16902;50.816;12.828;2022-12-07T08:20:22;19.27;;;12.37;;
30080;SDS011;16902;50.816;12.828;2022-12-07T08:25:24;23.47;;;12.47;;
30080;SDS011;16902;50.816;12.828;2022-12-07T08:30:26;22.75;;;12.52;;
30080;SDS011;16902;50.816;12.828;2022-12-07T08:35:29;23.38;;;14.25;;
30080;SDS011;16902;50.816;12.828;2022-12-07T08:40:31;20.65;;;13.25;;
30080;SDS011;16902;50.816;12.828;2022-12-07T08:45:33;25.17;;;14.00;;
30080;SDS011;16902;50.816;12.828;2022-12-07T08:50:37;18.00;;;11.68;;
30080;SDS011;16902;50.816;12.828;2022-12-07T08:55:43;18.75;;;12.30;;
30080;SDS011;16902;50.816;12.828;2022-12-07T09:00:46;16.10;;;10.27;;
30080;SDS011;16902;50.816;12.828;2022-12-07T09:05:48;16.73;;;11.35;;
30080;SDS011;16902;50.816;12.828;2022-12-07T09:10:50;19.13;;;12.82;;
30080;SDS011;16902;50.816;12.828;2022-12-07T09:15:52;16.65;;;10.85;;
30080;SDS011;16902;50.816;12.828;2022-12-07T09:20:55;15.80;;;11.00;;
30080;SDS011;16902;50.816;12.828;2022-12-07T09:26:04;17.45;;;11.25;;
30080;SDS011;16902;50.816;12.828;2022-12-07T09:31:10;17.17;;;10.88;;
30080;SDS011;16902;50.816;12.828;2022-12-07T09:36:24;18.13;;;11.30;;
30080;SDS011;16902;50.816;12.828;2022-12-07T09:41:27;16.83;;;11.05;;
30080;SDS011;16902;50.816;12.828;2022-12-07T09:46:33;16.27;;;11.18;;
30080;SDS011;16902;50.816;12.828;2022-12-07T09:51:38;17.70;;;11.05;;
30080;SDS011;16902;50.816;12.828;2022-12-07T09:56:40;15.10;;;9.98;;
30080;SDS011;16902;50.816;12.828;2022-12-07T10:01:42;17.33;;;10.82;;
30080;SDS011;16902;50.816;12.828;2022-12-07T10:06:44;16.23;;;11.40;;
30080;SDS011;16902;50.816;12.828;2022-12-07T10:17:28;14.40;;;10.10;;
30080;SDS011;16902;50.816;12.828;2022-12-07T10:22:30;13.30;;;10.32;;
30080;SDS011;16902;50.816;12.828;2022-12-07T10:27:32;13.77;;;9.73;;
30080;SDS011;16902;50.816;12.828;2022-12-07T10:32:35;17.33;;;10.85;;
30080;SDS011;16902;50.816;12.828;2022-12-07T10:37:40;13.80;;;9.25;;
30080;SDS011;16902;50.816;12.828;2022-12-07T10:42:43;16.55;;;9.45;;
30080;SDS011;16902;50.816;12.828;2022-12-07T10:48:13;11.52;;;9.07;;
30080;SDS011;16902;50.816;12.828;2022-12-07T11:21:29;11.02;;;7.20;;
30080;SDS011;16902;50.816;12.828;2022-12-07T11:31:53;9.43;;;6.47;;
30080;SDS011;16902;50.816;12.828;2022-12-07T11:37:09;9.85;;;5.95;;
30080;SDS011;16902;50.816;12.828;2022-12-07T11:42:21;11.25;;;6.97;;
30080;SDS011;16902;50.816;12.828;2022-12-07T11:52:51;8.23;;;6.18;;
30080;SDS011;16902;50.816;12.828;2022-12-07T11:58:04;7.53;;;5.72;;
30080;SDS011;16902;50.816;12.828;2022-12-07T12:03:20;7.95;;;5.28;;
30080;SDS011;16902;50.816;12.828;2022-12-07T12:19:57;5.53;;;4.93;;
30080;SDS011;16902;50.816;12.828;2022-12-07T12:25:05;7.03;;;5.47;;
30080;SDS011;16902;50.816;12.828;2022-12-07T12:30:29;9.27;;;5.30;;
30080;SDS011;16902;50.816;12.828;2022-12-07T12:35:35;6.80;;;5.53;;
30080;SDS011;16902;50.816;12.828;2022-12-07T12:40:38;6.57;;;5.32;;
30080;SDS011;16902;50.816;12.828;2022-12-07T12:45:48;10.80;;;5.35;;
30080;SDS011;16902;50.816;12.828;2022-12-07T12:50:59;7.78;;;5.85;;
30080;SDS011;16902;50.816;12.828;2022-12-07T13:23:40;6.00;;;4.72;;
30080;SDS011;16902;50.816;12.828;2022-12-07T13:34:34;5.72;;;4.28;;
30080;SDS011;16902;50.816;12.828;2022-12-07T13:39:47;6.90;;;5.03;;
30080;SDS011;16902;50.816;12.828;2022-12-07T13:44:51;5.72;;;4.93;;
30080;SDS011;16902;50.816;12.828;2022-12-07T13:49:55;7.25;;;5.00;;
30080;SDS011;16902;50.816;12.828;2022-12-07T14:00:00;5.95;;;4.88;;
30080;SDS011;16902;50.816;12.828;2022-12-07T14:05:15;6.78;;;5.07;;
30080;SDS011;16902;50.816;12.828;2022-12-07T14:10:33;5.07;;;4.55;;
30080;SDS011;16902;50.816;12.828;2022-12-07T14:15:36;5.15;;;4.65;;
30080;SDS011;16902;50.816;12.828;2022-12-07T14:20:39;5.32;;;4.82;;
30080;SDS011;16902;50.816;12.828;2022-12-07T14:25:46;4.97;;;4.55;;
30080;SDS011;16902;50.816;12.828;2022-12-07T14:30:52;5.13;;;4.28;;
30080;SDS011;16902;50.816;12.828;2022-12-07T14:35:53;4.25;;;3.95;;
30080;SDS011;16902;50.816;12.828;2022-12-07T14:40:57;5.53;;;3.78;;
30080;SDS011;16902;50.816;12.828;2022-12-07T14:46:18;3.83;;;3.45;;
30080;SDS011;16902;50.816;12.828;2022-12-07T14:51:20;4.43;;;4.03;;
30080;SDS011;16902;50.816;12.828;2022-12-07T14:56:43;4.32;;;3.90;;
30080;SDS011;16902;50.816;12.828;2022-12-07T15:01:46;4.63;;;4.20;;
30080;SDS011;16902;50.816;12.828;2022-12-07T15:06:58;7.85;;;4.82;;
30080;SDS011;16902;50.816;12.828;2022-12-07T15:12:02;6.60;;;4.95;;
30080;SDS011;16902;50.816;12.828;2022-12-07T15:17:05;6.03;;;4.47;;
30080;SDS011;16902;50.816;12.828;2022-12-07T15:22:12;4.63;;;4.22;;
30080;SDS011;16902;50.816;12.828;2022-12-07T15:27:13;4.53;;;4.03;;
30080;SDS011;16902;50.816;12.828;2022-12-07T15:32:15;4.35;;;4.03;;
30080;SDS011;16902;50.816;12.828;2022-12-07T15:37:17;4.97;;;4.00;;
30080;SDS011;16902;50.816;12.828;2022-12-07T15:42:19;5.80;;;4.07;;
30080;SDS011;16902;50.816;12.828;2022-12-07T15:47:21;4.38;;;3.97;;
30080;SDS011;16902;50.816;12.828;2022-12-07T15:52:23;5.90;;;4.47;;
30080;SDS011;16902;50.816;12.828;2022-12-07T15:57:25;5.63;;;4.25;;
30080;SDS011;16902;50.816;12.828;2022-12-07T16:02:28;4.72;;;4.28;;
30080;SDS011;16902;50.816;12.828;2022-12-07T16:07:29;6.97;;;3.95;;
30080;SDS011;16902;50.816;12.828;2022-12-07T16:12:31;4.65;;;4.25;;
30080;SDS011;16902;50.816;12.828;2022-12-07T16:17:33;5.43;;;4.30;;
30080;SDS011;16902;50.816;12.828;2022-12-07T16:22:35;4.72;;;4.32;;
30080;SDS011;16902;50.816;12.828;2022-12-07T16:27:37;5.18;;;4.68;;
30080;SDS011;16902;50.816;12.828;2022-12-07T16:32:38;5.85;;;4.10;;
30080;SDS011;16902;50.816;12.828;2022-12-07T16:37:43;5.45;;;4.63;;
30080;SDS011;16902;50.816;12.828;2022-12-07T16:42:45;6.47;;;4.95;;
30080;SDS011;16902;50.816;12.828;2022-12-07T16:47:47;7.47;;;5.47;;
30080;SDS011;16902;50.816;12.828;2022-12-07T16:52:49;6.80;;;4.60;;
30080;SDS011;16902;50.816;12.828;2022-12-07T16:57:50;5.70;;;5.18;;
30080;SDS011;16902;50.816;12.828;2022-12-07T17:02:52;5.85;;;5.13;;
30080;SDS011;16902;50.816;12.828;2022-12-07T17:07:56;9.68;;;6.03;;
30080;SDS011;16902;50.816;12.828;2022-12-07T17:12:58;8.13;;;4.97;;
30080;SDS011;16902;50.816;12.828;2022-12-07T17:18:00;5.40;;;4.75;;
30080;SDS011;16902;50.816;12.828;2022-12-07T17:23:02;5.22;;;4.72;;
30080;SDS011;16902;50.816;12.828;2022-12-07T17:28:04;5.53;;;4.88;;
30080;SDS011;16902;50.816;12.828;2022-12-07T17:33:06;6.45;;;5.25;;
30080;SDS011;16902;50.816;12.828;2022-12-07T17:38:08;8.77;;;5.68;;
30080;SDS011;16902;50.816;12.828;2022-12-07T17:43:09;6.75;;;5.35;;
30080;SDS011;16902;50.816;12.828;2022-12-07T17:48:11;7.72;;;5.63;;
30080;SDS011;16902;50.816;12.828;2022-12-07T17:53:13;7.28;;;5.82;;
30080;SDS011;16902;50.816;12.828;2022-12-07T17:58:15;6.43;;;5.43;;
30080;SDS011;16902;50.816;12.828;2022-12-07T18:03:17;7.45;;;5.20;;
30080;SDS011;16902;50.816;12.828;2022-12-07T18:08:18;7.63;;;5.63;;
30080;SDS011;16902;50.816;12.828;2022-12-07T18:13:20;7.80;;;5.40;;
30080;SDS011;16902;50.816;12.828;2022-12-07T18:18:38;6.10;;;5.38;;
30080;SDS011;16902;50.816;12.828;2022-12-07T18:23:40;9.15;;;6.75;;
30080;SDS011;16902;50.816;12.828;2022-12-07T18:28:44;8.65;;;6.20;;
30080;SDS011;16902;50.816;12.828;2022-12-07T18:33:47;10.05;;;5.82;;
30080;SDS011;16902;50.816;12.828;2022-12-07T18:38:49;8.77;;;6.07;;
30080;SDS011;16902;50.816;12.828;2022-12-07T18:43:51;7.80;;;6.20;;
30080;SDS011;16902;50.816;12.828;2022-12-07T18:48:53;7.43;;;5.68;;
30080;SDS011;16902;50.816;12.828;2022-12-07T18:53:57;9.38;;;6.55;;
30080;SDS011;16902;50.816;12.828;2022-12-07T18:59:01;6.30;;;5.50;;
30080;SDS011;16902;50.816;12.828;2022-12-07T19:04:22;10.65;;;7.50;;
30080;SDS011;16902;50.816;12.828;2022-12-07T19:09:24;8.60;;;7.05;;
30080;SDS011;16902;50.816;12.828;2022-12-07T19:14:30;9.38;;;7.88;;
30080;SDS011;16902;50.816;12.828;2022-12-07T19:19:42;9.77;;;7.13;;
30080;SDS011;16902;50.816;12.828;2022-12-07T19:24:47;10.45;;;7.70;;
30080;SDS011;16902;50.816;12.828;2022-12-07T19:29:50;9.05;;;7.38;;
30080;SDS011;16902;50.816;12.828;2022-12-07T19:34:52;9.63;;;7.35;;
30080;SDS011;16902;50.816;12.828;2022-12-07T19:39:54;8.07;;;6.25;;
30080;SDS011;16902;50.816;12.828;2022-12-07T19:44:57;7.82;;;6.47;;
30080;SDS011;16902;50.816;12.828;2022-12-07T19:49:58;7.22;;;6.53;;
30080;SDS011;16902;50.816;12.828;2022-12-07T19:55:00;7.60;;;6.50;;
30080;SDS011;16902;50.816;12.828;2022-12-07T20:00:03;8.88;;;6.50;;
30080;SDS011;16902;50.816;12.828;2022-12-07T20:05:05;9.45;;;6.57;;
30080;SDS011;16902;50.816;12.828;2022-12-07T20:10:08;9.65;;;6.03;;
30080;SDS011;16902;50.816;12.828;2022-12-07T20:15:11;8.82;;;7.07;;
30080;SDS011;16902;50.816;12.828;2022-12-07T20:20:13;7.55;;;6.20;;
30080;SDS011;16902;50.816;12.828;2022-12-07T20:25:15;7.72;;;6.20;;
30080;SDS011;16902;50.816;12.828;2022-12-07T20:30:17;8.50;;;5.88;;
30080;SDS011;16902;50.816;12.828;2022-12-07T20:35:19;7.63;;;6.43;;
30080;SDS011;16902;50.816;12.828;2022-12-07T20:40:21;7.93;;;6.20;;
30080;SDS011;16902;50.816;12.828;2022-12-07T20:45:23;6.72;;;6.15;;
30080;SDS011;16902;50.816;12.828;2022-12-07T20:50:25;7.95;;;6.45;;
30080;SDS011;16902;50.816;12.828;2022-12-07T20:55:27;8.43;;;6.47;;
30080;SDS011;16902;50.816;12.828;2022-12-07T21:00:29;8.30;;;6.40;;
30080;SDS011;16902;50.816;12.828;2022-12-07T21:05:31;8.10;;;6.75;;
30080;SDS011;16902;50.816;12.828;2022-12-07T21:10:35;8.13;;;6.47;;
30080;SDS011;16902;50.816;12.828;2022-12-07T21:15:37;7.80;;;6.78;;
30080;SDS011;16902;50.816;12.828;2022-12-07T21:20:39;8.73;;;7.22;;
30080;SDS011;16902;50.816;12.828;2022-12-07T21:25:41;8.73;;;7.82;;
30080;SDS011;16902;50.816;12.828;2022-12-07T21:30:43;10.63;;;9.30;;
30080;SDS011;16902;50.816;12.828;2022-12-07T21:36:05;9.32;;;7.18;;
30080;SDS011;16902;50.816;12.828;2022-12-07T21:41:12;12.20;;;7.75;;
30080;SDS011;16902;50.816;12.828;2022-12-07T21:46:22;9.82;;;7.68;;
30080;SDS011;16902;50.816;12.828;2022-12-07T21:51:33;11.35;;;7.30;;
30080;SDS011;16902;50.816;12.828;2022-12-07T21:56:36;9.00;;;7.70;;
30080;SDS011;16902;50.816;12.828;2022-12-07T22:01:41;9.73;;;7.65;;
30080;SDS011;16902;50.816;12.828;2022-12-07T22:06:45;14.65;;;7.82;;
30080;SDS011;16902;50.816;12.828;2022-12-07T22:11:48;11.48;;;7.57;;
30080;SDS011;16902;50.816;12.828;2022-12-07T22:16:50;10.75;;;6.80;;
30080;SDS011;16902;50.816;12.828;2022-12-07T22:21:52;10.38;;;7.65;;
30080;SDS011;16902;50.816;12.828;2022-12-07T22:26:54;10.32;;;7.93;;
30080;SDS011;16902;50.816;12.828;2022-12-07T22:31:56;9.65;;;7.43;;
30080;SDS011;16902;50.816;12.828;2022-12-07T22:36:58;10.07;;;8.57;;
30080;SDS011;16902;50.816;12.828;2022-12-07T22:42:00;10.82;;;8.13;;
30080;SDS011;16902;50.816;12.828;2022-12-07T22:47:02;9.95;;;8.05;;
30080;SDS011;16902;50.816;12.828;2022-12-07T22:52:03;9.23;;;7.55;;
30080;SDS011;16902;50.816;12.828;2022-12-07T22:57:05;10.18;;;7.20;;
30080;SDS011;16902;50.816;12.828;2022-12-07T23:02:07;8.75;;;7.10;;
30080;SDS011;16902;50.816;12.828;2022-12-07T23:07:09;9.23;;;7.25;;
30080;SDS011;16902;50.816;12.828;2022-12-07T23:12:11;12.68;;;8.00;;
30080;SDS011;16902;50.816;12.828;2022-12-07T23:17:33;9.90;;;7.75;;
30080;SDS011;16902;50.816;12.828;2022-12-07T23:22:36;11.55;;;8.80;;
30080;SDS011;16902;50.816;12.828;2022-12-07T23:27:38;15.13;;;9.40;;
30080;SDS011;16902;50.816;12.828;2022-12-07T23:32:39;15.10;;;9.90;;
30080;SDS011;16902;50.816;12.828;2022-12-07T23:37:41;17.05;;;11.15;;
30080;SDS011;16902;50.816;12.828;2022-12-07T23:42:43;14.32;;;10.68;;
30080;SDS011;16902;50.816;12.828;2022-12-07T23:47:45;16.08;;;11.40;;
30080;SDS011;16902;50.816;12.828;2022-12-07T23:52:47;15.43;;;10.88;;
30080;SDS011;16902;50.816;12.828;2022-12-07T23:57:48;14.50;;;11.50;;
